createdAt,value
2022-08-16T00:08:08.055Z,8.00
2022-08-16T00:18:08.237Z,7.30
2022-08-16T00:28:14.729Z,8.20
2022-08-16T00:38:38.401Z,6.80
2022-08-16T00:48:28.970Z,6.70
2022-08-16T00:58:12.694Z,6.80
2022-08-16T01:08:35.547Z,7.90
2022-08-16T01:18:39.593Z,7.10
2022-08-16T01:28:19.614Z,7.50
2022-08-16T01:38:19.582Z,7.40
2022-08-16T01:48:20.060Z,7.40
2022-08-16T01:58:21.094Z,8.70
2022-08-16T02:08:33.104Z,7.50
2022-08-16T02:18:20.214Z,8.10
2022-08-16T02:28:19.831Z,7.10
2022-08-16T02:38:19.917Z,6.60
2022-08-16T02:48:28.786Z,6.70
2022-08-16T02:58:24.725Z,7.30
2022-08-16T03:08:49.992Z,6.80
2022-08-16T03:18:34.122Z,6.60
2022-08-16T03:28:29.198Z,6.70
2022-08-16T03:38:33.235Z,7.10
2022-08-16T03:48:31.572Z,6.30
2022-08-16T03:58:27.912Z,7.70
2022-08-16T04:08:27.536Z,6.40
2022-08-16T04:18:32.812Z,7.70
2022-08-16T04:28:53.069Z,8.20
2022-08-16T04:38:32.195Z,6.90
2022-08-16T04:48:32.682Z,7.30
2022-08-16T04:58:38.146Z,7.70
2022-08-16T05:08:36.304Z,7.20
2022-08-16T05:18:35.922Z,7.50
2022-08-16T05:28:37.800Z,7.90
2022-08-16T05:38:39.137Z,7.50
2022-08-16T05:48:35.278Z,5.90
2022-08-16T05:58:40.243Z,7.30
2022-08-16T06:08:42.412Z,6.60
2022-08-16T06:18:39.679Z,7.70
2022-08-16T06:28:39.187Z,6.40
2022-08-16T06:38:52.368Z,6.90
2022-08-16T06:48:46.231Z,6.60
2022-08-16T06:58:43.612Z,7.20
2022-08-16T07:08:43.252Z,7.10
2022-08-16T07:18:59.509Z,7.80
2022-08-16T07:28:48.161Z,8.20
2022-08-16T07:38:47.965Z,8.40
2022-08-16T07:48:47.584Z,8.30
2022-08-16T07:58:47.496Z,8.90
2022-08-16T08:08:52.888Z,8.20
2022-08-16T08:18:56.016Z,9.90
2022-08-16T08:28:51.716Z,8.10
2022-08-16T08:38:53.495Z,7.70
2022-08-16T08:48:59.374Z,7.90
2022-08-16T08:58:58.070Z,8.20
2022-08-16T09:08:55.993Z,8.50
2022-08-16T09:19:03.996Z,8.40
2022-08-16T09:29:14.162Z,8.40
2022-08-16T09:39:00.426Z,9.20
2022-08-16T09:49:03.426Z,7.70
2022-08-16T09:59:07.851Z,9.00
2022-08-16T10:09:06.689Z,8.70
2022-08-16T10:19:05.103Z,9.20
2022-08-16T10:29:09.660Z,9.00
2022-08-16T10:39:09.299Z,8.40
2022-08-16T10:49:08.949Z,8.30
2022-08-16T10:59:33.011Z,10.00
2022-08-16T11:09:24.640Z,8.30
2022-08-16T11:19:13.816Z,9.90
2022-08-16T11:29:18.838Z,8.80
2022-08-16T11:39:18.335Z,8.90
2022-08-16T11:49:18.055Z,9.00
2022-08-16T11:59:24.327Z,7.90
2022-08-16T12:09:22.855Z,8.80
2022-08-16T12:19:33.574Z,8.70
2022-08-16T12:29:29.309Z,9.30
2022-08-16T12:39:28.081Z,8.80
2022-08-16T12:49:32.254Z,8.60
2022-08-16T12:59:32.049Z,8.50
2022-08-16T13:09:37.834Z,7.90
2022-08-16T13:20:05.852Z,8.10
2022-08-16T13:29:39.980Z,9.00
2022-08-16T13:39:41.534Z,8.90
2022-08-16T13:49:40.984Z,9.30
2022-08-16T13:59:46.263Z,8.40
2022-08-16T14:09:45.767Z,9.00
2022-08-16T14:19:46.135Z,8.00
2022-08-16T14:29:50.519Z,8.00
2022-08-16T14:39:50.349Z,8.80
2022-08-16T14:49:55.309Z,8.80
2022-08-16T14:59:55.055Z,8.50
2022-08-16T15:10:00.203Z,8.60
2022-08-16T15:19:59.837Z,7.90
2022-08-16T15:29:59.625Z,8.70
2022-08-16T15:40:04.770Z,8.70
2022-08-16T15:50:04.474Z,8.30
2022-08-16T16:00:09.879Z,8.20
2022-08-16T16:10:12.875Z,8.80
2022-08-16T16:20:14.664Z,9.80
2022-08-16T16:30:32.910Z,8.70
2022-08-16T16:40:13.432Z,9.90
2022-08-16T16:50:18.692Z,9.50
2022-08-16T17:00:26.251Z,9.20
2022-08-16T17:10:45.740Z,8.60
2022-08-16T17:20:24.568Z,11.10
2022-08-16T17:30:29.303Z,8.70
2022-08-16T17:40:45.856Z,9.70
2022-08-16T17:50:27.304Z,9.30
2022-08-16T18:00:27.079Z,9.90
2022-08-16T18:10:36.132Z,9.70
2022-08-16T18:20:32.003Z,8.80
2022-08-16T18:30:31.384Z,8.80
2022-08-16T18:40:36.677Z,9.40
2022-08-16T18:50:59.538Z,9.70
2022-08-16T19:00:45.862Z,9.30
2022-08-16T19:10:41.372Z,9.80
2022-08-16T19:20:41.092Z,9.60
2022-08-16T19:30:41.083Z,9.40
2022-08-16T19:40:46.417Z,9.10
2022-08-16T19:50:45.831Z,9.20
2022-08-16T20:00:45.866Z,9.00
2022-08-16T20:10:51.009Z,8.60
2022-08-16T20:20:50.487Z,9.70
2022-08-16T20:30:50.098Z,9.20
2022-08-16T20:40:55.222Z,9.30
2022-08-16T20:50:54.824Z,10.80
2022-08-16T21:00:54.499Z,9.40
2022-08-16T21:10:59.710Z,9.40
2022-08-16T21:20:59.156Z,9.60
2022-08-16T21:30:59.077Z,10.20
2022-08-16T21:41:04.034Z,9.40
2022-08-16T21:51:03.809Z,9.60
2022-08-16T22:01:03.105Z,10.10
2022-08-16T22:11:09.335Z,9.10
2022-08-16T22:21:07.898Z,9.80
2022-08-16T22:31:07.634Z,9.80
2022-08-16T22:41:07.090Z,10.30
2022-08-16T22:51:12.433Z,10.50
2022-08-16T23:01:11.894Z,9.40
2022-08-16T23:11:11.466Z,9.60
2022-08-16T23:21:11.480Z,9.50
2022-08-16T23:31:16.585Z,11.10
2022-08-16T23:41:16.200Z,9.40
2022-08-16T23:51:15.802Z,10.60
